This is the latest recevied weather packets stored in our database for station/object K5KHP. If no packets are shown the sender has not sent any weather packets the latest 1 day(s).
| Time | Temp. | Humidity | Pressure | Rain* | Wind** | Luminosity | Snow |
|---|---|---|---|---|---|---|---|
| 1778020151 | 18.33° C | 67% | 1013.6 hPa | 0 mm | 0.45 m/s, 258° | 256 W/m² | - |
| 1778019848 | 18.89° C | 65% | 1013.4 hPa | 0 mm | 0.89 m/s, 261° | 296 W/m² | - |
| 1778019544 | 18.89° C | 65% | 1013.7 hPa | 0 mm | 0 m/s | 271 W/m² | - |
| 1778019241 | 18.89° C | 63% | 1013.5 hPa | 0 mm | 3.13 m/s, 250° | 269 W/m² | - |
| 1778018938 | 18.89° C | 62% | 1013.5 hPa | 0 mm | 2.24 m/s, 271° | 229 W/m² | - |
| 1778018635 | 18.33° C | 63% | 1013.6 hPa | 0 mm | 0.89 m/s, 263° | 196 W/m² | - |
| 1778018333 | 18.33° C | 60% | 1013.8 hPa | 0 mm | 0.89 m/s, 279° | 201 W/m² | - |
| 1778018031 | 18.33° C | 63% | 1014 hPa | 0 mm | 2.24 m/s, 263° | 217 W/m² | - |
| 1778017729 | 18.89° C | 62% | 1013.8 hPa | 0 mm | 0.45 m/s, 293° | 233 W/m² | - |
| 1778017426 | 18.89° C | 61% | 1013.7 hPa | 0 mm | 2.68 m/s, 278° | 281 W/m² | - |
| 1778017123 | 18.89° C | 64% | 1013.9 hPa | 0 mm | 0 m/s | 337 W/m² | - |
| 1778016821 | 18.89° C | 64% | 1013.9 hPa | 0 mm | 1.34 m/s, 235° | 364 W/m² | - |
| 1778016516 | 18.33° C | 65% | 1013.9 hPa | 0 mm | 0 m/s | 358 W/m² | - |
| 1778016214 | 18.33° C | 65% | 1013.9 hPa | 0 mm | 3.13 m/s, 248° | 339 W/m² | - |
| 1778015909 | 18.89° C | 65% | 1013.9 hPa | 0 mm | 1.79 m/s, 263° | 271 W/m² | - |
| 1778015608 | 18.89° C | 63% | 1014.1 hPa | 0 mm | 0 m/s | 251 W/m² | - |
| 1778015304 | 18.33° C | 65% | 1014.1 hPa | 0 mm | 0.45 m/s, 250° | 258 W/m² | - |
| 1778015001 | 18.89° C | 63% | 1013.9 hPa | 0 mm | 1.34 m/s, 274° | 241 W/m² | - |
| 1778014698 | 18.89° C | 61% | 1014 hPa | 0 mm | 0 m/s | 331 W/m² | - |
| 1778014396 | 18.89° C | 61% | 1013.9 hPa | 0 mm | 1.79 m/s, 250° | 337 W/m² | - |
| 1778014092 | 19.44° C | 60% | 1014.1 hPa | 0 mm | 1.79 m/s, 223° | 406 W/m² | - |
| 1778013790 | 20° C | 59% | 1013.9 hPa | 0 mm | 0.45 m/s, 236° | 282 W/m² | - |
| 1778013487 | 20° C | 58% | 1013.9 hPa | 0 mm | 0.89 m/s, 269° | 629 W/m² | - |
| 1778013184 | 20° C | 58% | 1013.9 hPa | 0 mm | 2.24 m/s, 301° | 383 W/m² | - |
| 1778012880 | 20° C | 56% | 1013.8 hPa | 0 mm | 0 m/s | 415 W/m² | - |
* Rain latest hour (hover to see other rain measurements)
** Current wind speed in m/s (hover to see current wind gust speed)